createdAt,value
2023-03-30T00:01:25.912Z,73.80
2023-03-30T00:03:55.488Z,74.40
2023-03-30T00:06:23.435Z,74.90
2023-03-30T00:08:57.508Z,74.70
2023-03-30T00:11:26.182Z,75.00
2023-03-30T00:13:53.452Z,75.90
2023-03-30T00:16:21.935Z,76.50
2023-03-30T00:18:50.631Z,77.00
2023-03-30T00:21:20.683Z,77.00
2023-03-30T00:23:48.899Z,77.10
2023-03-30T00:26:17.361Z,77.40
2023-03-30T00:28:45.497Z,77.50
2023-03-30T00:31:12.849Z,77.30
2023-03-30T00:33:46.837Z,77.70
2023-03-30T00:36:16.111Z,77.80
2023-03-30T00:38:44.290Z,78.50
2023-03-30T00:41:11.571Z,78.80
2023-03-30T00:44:01.053Z,79.40
2023-03-30T00:46:31.537Z,80.50
2023-03-30T00:49:06.576Z,81.40
2023-03-30T00:51:38.757Z,82.30
2023-03-30T00:54:16.883Z,83.20
2023-03-30T00:56:48.682Z,83.70
2023-03-30T00:59:16.246Z,84.50
2023-03-30T01:01:51.015Z,85.00
2023-03-30T01:04:19.085Z,85.30
2023-03-30T01:06:47.283Z,85.90
2023-03-30T01:09:18.536Z,86.20
2023-03-30T01:11:46.307Z,86.20
2023-03-30T01:14:18.123Z,86.40
2023-03-30T01:16:57.529Z,86.20
2023-03-30T01:19:43.839Z,86.40
2023-03-30T01:22:37.195Z,87.00
2023-03-30T01:25:36.803Z,87.30
2023-03-30T01:28:31.386Z,87.70
2023-03-30T01:31:25.869Z,88.00
2023-03-30T01:34:18.491Z,88.30
2023-03-30T01:37:04.117Z,88.40
2023-03-30T01:39:44.999Z,88.50
2023-03-30T01:42:38.046Z,88.80
2023-03-30T01:45:36.099Z,88.60
2023-03-30T01:48:14.427Z,88.90
2023-03-30T01:50:48.363Z,89.20
2023-03-30T01:53:27.667Z,89.20
2023-03-30T01:56:04.446Z,89.30
2023-03-30T01:58:36.544Z,89.30
2023-03-30T02:01:07.045Z,89.20
2023-03-30T02:03:39.751Z,89.30
2023-03-30T02:06:13.977Z,89.60
2023-03-30T02:08:45.706Z,89.70
2023-03-30T02:11:13.906Z,89.80
2023-03-30T02:13:43.267Z,89.80
2023-03-30T02:16:17.867Z,89.90
2023-03-30T02:18:46.625Z,90.20
2023-03-30T02:21:13.798Z,90.40
2023-03-30T02:23:45.495Z,90.70
2023-03-30T02:26:13.815Z,90.80
2023-03-30T02:28:41.611Z,90.70
2023-03-30T02:31:17.074Z,90.80
2023-03-30T02:34:14.486Z,90.90
2023-03-30T02:37:07.916Z,91.20
2023-03-30T02:40:13.581Z,90.80
2023-03-30T02:43:13.021Z,90.90
2023-03-30T02:45:50.542Z,91.20
2023-03-30T02:48:48.546Z,90.80
2023-03-30T02:51:16.249Z,90.80
2023-03-30T02:54:18.773Z,90.80
2023-03-30T02:56:57.660Z,91.00
2023-03-30T02:59:36.907Z,91.10
2023-03-30T03:02:37.969Z,91.30
2023-03-30T03:05:08.083Z,91.70
2023-03-30T03:07:35.548Z,91.70
2023-03-30T03:10:03.578Z,91.60
2023-03-30T03:12:34.064Z,91.80
2023-03-30T03:15:02.141Z,91.80
2023-03-30T03:17:38.200Z,91.80
2023-03-30T03:20:06.391Z,91.80
2023-03-30T03:22:33.642Z,91.70
2023-03-30T03:25:02.844Z,91.80
2023-03-30T03:27:31.902Z,91.70
2023-03-30T03:29:59.834Z,91.90
2023-03-30T03:32:27.227Z,92.00
2023-03-30T03:34:54.484Z,91.90
2023-03-30T03:37:22.218Z,92.00
2023-03-30T03:39:50.961Z,91.90
2023-03-30T03:42:18.199Z,92.10
2023-03-30T03:44:45.441Z,92.00
2023-03-30T03:47:17.033Z,91.90
2023-03-30T03:49:44.538Z,92.10
2023-03-30T03:52:17.744Z,91.90
2023-03-30T03:54:44.793Z,91.90
2023-03-30T03:57:12.189Z,92.00
2023-03-30T03:59:39.907Z,92.00
2023-03-30T04:02:07.349Z,92.00
2023-03-30T04:04:34.520Z,91.90
2023-03-30T04:07:02.143Z,92.00
2023-03-30T04:09:30.383Z,91.90
2023-03-30T04:11:57.665Z,92.10
2023-03-30T04:14:28.353Z,92.00
2023-03-30T04:16:58.292Z,92.00
2023-03-30T04:19:37.516Z,92.20
2023-03-30T04:22:06.661Z,92.30
2023-03-30T04:24:36.757Z,92.10
2023-03-30T04:27:05.001Z,92.10
2023-03-30T04:29:35.759Z,92.20
2023-03-30T04:32:05.115Z,92.20
2023-03-30T04:34:33.195Z,92.20
2023-03-30T04:37:00.418Z,92.40
2023-03-30T04:39:30.502Z,92.40
2023-03-30T04:41:58.294Z,92.30
2023-03-30T04:44:25.978Z,92.00
2023-03-30T04:46:57.634Z,91.80
2023-03-30T04:49:25.374Z,91.80
2023-03-30T04:51:53.668Z,91.80
2023-03-30T04:54:22.765Z,91.70
2023-03-30T04:56:50.133Z,91.90
2023-03-30T04:59:18.376Z,91.90
2023-03-30T05:01:46.123Z,92.00
2023-03-30T05:04:13.930Z,91.90
2023-03-30T05:06:43.090Z,91.60
2023-03-30T05:09:12.961Z,91.80
2023-03-30T05:11:40.137Z,92.00
2023-03-30T05:14:08.042Z,92.00
2023-03-30T05:16:35.926Z,92.00
2023-03-30T05:19:06.330Z,91.90
2023-03-30T05:21:34.458Z,91.80
2023-03-30T05:24:08.940Z,92.00
2023-03-30T05:26:36.866Z,92.00
2023-03-30T05:29:04.695Z,92.00
2023-03-30T05:31:31.897Z,91.80
2023-03-30T05:33:59.617Z,91.60
2023-03-30T05:36:27.505Z,91.50
2023-03-30T05:38:54.957Z,91.60
2023-03-30T05:41:26.342Z,91.40
2023-03-30T05:43:54.296Z,91.50
2023-03-30T05:46:21.838Z,91.50
2023-03-30T05:48:53.432Z,91.40
2023-03-30T05:51:22.142Z,91.30
2023-03-30T05:53:52.428Z,91.40
2023-03-30T05:56:22.927Z,91.40
2023-03-30T05:58:52.982Z,91.30
2023-03-30T06:01:29.943Z,91.00
2023-03-30T06:04:01.707Z,91.10
2023-03-30T06:06:29.837Z,91.00
2023-03-30T06:08:57.816Z,90.90
2023-03-30T06:11:36.256Z,90.60
2023-03-30T06:14:04.169Z,90.70
2023-03-30T06:16:34.444Z,90.70
2023-03-30T06:19:07.311Z,90.30
2023-03-30T06:21:34.619Z,90.30
2023-03-30T06:24:14.525Z,90.50
2023-03-30T06:26:48.988Z,89.90
2023-03-30T06:29:22.971Z,89.90
2023-03-30T06:32:04.046Z,89.60
2023-03-30T06:34:33.112Z,89.70
2023-03-30T06:37:03.963Z,89.60
2023-03-30T06:39:34.088Z,89.70
2023-03-30T06:42:04.738Z,89.30
2023-03-30T06:44:36.914Z,89.30
2023-03-30T06:47:17.122Z,89.20
2023-03-30T06:49:45.759Z,89.10
2023-03-30T06:52:19.561Z,89.20
2023-03-30T06:54:47.479Z,89.40
2023-03-30T06:57:25.583Z,89.30
2023-03-30T06:59:56.208Z,88.80
2023-03-30T07:02:30.509Z,89.00
2023-03-30T07:04:57.833Z,88.90
2023-03-30T07:07:39.588Z,88.80
2023-03-30T07:10:10.568Z,88.60
2023-03-30T07:12:39.874Z,88.10
2023-03-30T07:15:10.279Z,88.20
2023-03-30T07:17:41.142Z,88.10
2023-03-30T07:20:11.092Z,87.90
2023-03-30T07:22:38.231Z,88.10
2023-03-30T07:25:05.924Z,87.80
2023-03-30T07:27:36.433Z,87.90
2023-03-30T07:30:20.660Z,87.70
2023-03-30T07:32:51.208Z,87.30
2023-03-30T07:35:24.920Z,87.40
2023-03-30T07:38:03.371Z,87.50
2023-03-30T07:40:47.316Z,87.40
2023-03-30T07:43:16.467Z,87.00
2023-03-30T07:45:45.500Z,86.90
2023-03-30T07:48:15.778Z,87.10
2023-03-30T07:50:47.809Z,87.00
2023-03-30T07:53:17.588Z,86.70
2023-03-30T07:55:47.970Z,86.60
2023-03-30T07:58:16.101Z,87.00
2023-03-30T08:00:45.528Z,87.40
2023-03-30T08:03:13.248Z,87.20
2023-03-30T08:05:43.718Z,86.80
2023-03-30T08:08:14.327Z,86.60
2023-03-30T08:10:43.274Z,86.10
2023-03-30T08:13:14.167Z,86.10
2023-03-30T08:15:42.025Z,86.20
2023-03-30T08:18:16.870Z,86.30
2023-03-30T08:20:45.678Z,85.80
2023-03-30T08:23:15.140Z,85.70
2023-03-30T08:25:47.170Z,85.60
2023-03-30T08:28:14.884Z,85.20
2023-03-30T08:30:42.138Z,85.10
2023-03-30T08:33:09.339Z,84.60
2023-03-30T08:35:44.666Z,84.30
2023-03-30T08:38:12.519Z,84.20
2023-03-30T08:40:42.133Z,83.90
2023-03-30T08:43:46.516Z,84.40
2023-03-30T08:46:22.973Z,84.50
2023-03-30T08:49:01.367Z,84.00
2023-03-30T08:51:38.978Z,84.00
2023-03-30T08:54:13.447Z,83.40
2023-03-30T08:56:47.993Z,83.20
2023-03-30T08:59:40.305Z,83.40
2023-03-30T09:02:29.408Z,83.40
2023-03-30T09:05:06.822Z,83.10
2023-03-30T09:07:44.419Z,83.00
2023-03-30T09:10:16.777Z,82.40
2023-03-30T09:12:48.402Z,82.40
2023-03-30T09:15:48.525Z,82.50
2023-03-30T09:18:23.947Z,82.60
2023-03-30T09:20:57.638Z,81.50
2023-03-30T09:23:29.636Z,80.80
2023-03-30T09:26:25.130Z,80.80
2023-03-30T09:29:21.532Z,80.40
2023-03-30T09:31:55.790Z,80.10
2023-03-30T09:34:50.842Z,79.90
2023-03-30T09:37:23.184Z,80.40
2023-03-30T09:39:51.319Z,80.20
2023-03-30T09:42:40.294Z,80.10
2023-03-30T09:45:34.678Z,79.20
2023-03-30T09:48:19.354Z,78.70
2023-03-30T09:50:47.789Z,79.10
2023-03-30T09:53:36.583Z,78.50
2023-03-30T09:56:17.275Z,77.40
2023-03-30T09:58:44.249Z,78.10
2023-03-30T10:01:22.436Z,78.20
2023-03-30T10:04:11.033Z,78.20
2023-03-30T10:06:54.873Z,78.10
2023-03-30T10:09:27.128Z,78.20
2023-03-30T10:11:55.887Z,77.90
2023-03-30T10:14:29.523Z,76.50
2023-03-30T10:17:01.405Z,75.40
2023-03-30T10:19:33.533Z,74.70
2023-03-30T10:22:20.611Z,75.00
2023-03-30T10:24:55.592Z,74.80
2023-03-30T10:27:57.959Z,75.10
2023-03-30T10:30:29.586Z,74.10
2023-03-30T10:33:02.389Z,73.70
2023-03-30T10:35:40.637Z,74.10
2023-03-30T10:38:17.439Z,74.00
2023-03-30T10:40:47.633Z,73.80
2023-03-30T10:43:20.442Z,73.30
2023-03-30T10:46:09.036Z,72.00
2023-03-30T10:49:15.980Z,70.90
2023-03-30T10:52:31.217Z,71.60
2023-03-30T10:55:31.111Z,70.10
2023-03-30T10:58:33.161Z,68.10
2023-03-30T11:01:19.270Z,68.70
2023-03-30T11:04:23.289Z,66.70
2023-03-30T11:06:53.554Z,66.60
2023-03-30T11:09:32.641Z,64.40
2023-03-30T11:12:05.124Z,64.30
2023-03-30T11:14:48.859Z,65.30
2023-03-30T11:17:51.138Z,66.30
2023-03-30T11:20:31.296Z,67.50
2023-03-30T11:23:09.066Z,67.30
2023-03-30T11:26:10.265Z,68.90
2023-03-30T11:28:52.987Z,69.70
2023-03-30T11:32:02.395Z,69.50
2023-03-30T11:34:55.344Z,69.30
2023-03-30T11:37:50.975Z,68.80
2023-03-30T11:40:22.371Z,69.40
2023-03-30T11:43:01.357Z,69.90
2023-03-30T11:45:52.301Z,70.50
2023-03-30T11:48:47.234Z,71.40
2023-03-30T11:51:32.209Z,72.10
2023-03-30T11:55:01.898Z,71.90
2023-03-30T11:58:11.444Z,71.60
2023-03-30T12:01:13.744Z,71.60
2023-03-30T12:03:43.419Z,72.70
2023-03-30T12:06:37.258Z,72.70
2023-03-30T12:09:05.115Z,73.10
2023-03-30T12:11:41.651Z,73.10
2023-03-30T12:14:44.042Z,72.60
2023-03-30T12:17:37.957Z,73.40
2023-03-30T12:20:12.205Z,73.80
2023-03-30T12:22:59.646Z,74.30
2023-03-30T12:25:52.233Z,74.60
2023-03-30T12:28:32.444Z,74.60
2023-03-30T12:31:14.687Z,75.20
2023-03-30T12:34:08.580Z,75.70
2023-03-30T12:36:41.643Z,75.50
2023-03-30T12:39:36.793Z,75.10
2023-03-30T12:42:17.979Z,74.80
2023-03-30T12:45:12.027Z,74.70
2023-03-30T12:47:53.998Z,74.50
2023-03-30T12:50:32.818Z,74.80
2023-03-30T12:53:30.396Z,75.00
2023-03-30T12:56:14.903Z,75.40
2023-03-30T12:59:12.488Z,75.60
2023-03-30T13:02:01.439Z,74.90
2023-03-30T13:04:41.337Z,75.30
2023-03-30T13:07:24.579Z,75.10
2023-03-30T13:09:56.977Z,75.00
2023-03-30T13:12:29.833Z,73.80
2023-03-30T13:15:39.146Z,73.80
2023-03-30T13:18:09.443Z,74.00
2023-03-30T13:21:01.287Z,73.90
2023-03-30T13:23:36.681Z,73.90
2023-03-30T13:26:31.936Z,74.30
2023-03-30T13:29:15.574Z,74.70
2023-03-30T13:31:58.032Z,74.10
2023-03-30T13:35:07.442Z,74.00
2023-03-30T13:41:03.819Z,74.50
2023-03-30T13:44:16.274Z,74.20
2023-03-30T13:47:00.560Z,73.80
2023-03-30T13:49:44.356Z,74.10
2023-03-30T13:52:22.942Z,74.30
2023-03-30T13:54:57.090Z,74.40
2023-03-30T13:57:36.743Z,75.00
2023-03-30T14:00:38.033Z,75.50
2023-03-30T14:03:29.133Z,76.00
2023-03-30T14:06:33.755Z,76.50
2023-03-30T14:09:06.994Z,76.50
2023-03-30T14:12:00.575Z,76.80
2023-03-30T14:14:51.169Z,77.00
2023-03-30T14:17:22.529Z,76.50
2023-03-30T14:19:57.673Z,75.20
2023-03-30T14:22:41.320Z,75.20
2023-03-30T14:25:22.677Z,75.40
2023-03-30T14:27:56.888Z,75.30
2023-03-30T14:30:29.969Z,74.70
2023-03-30T14:33:16.922Z,74.80
2023-03-30T14:35:57.229Z,74.90
2023-03-30T14:38:38.989Z,74.80
2023-03-30T14:41:24.660Z,75.00
2023-03-30T14:44:11.179Z,74.90
2023-03-30T14:46:51.732Z,75.00
2023-03-30T14:49:31.737Z,75.00
2023-03-30T14:52:24.742Z,75.20
2023-03-30T14:55:18.413Z,75.10
2023-03-30T14:57:55.683Z,75.20
2023-03-30T15:00:24.947Z,75.50
2023-03-30T15:03:06.162Z,75.60
2023-03-30T15:05:50.175Z,75.40
2023-03-30T15:08:36.483Z,75.50
2023-03-30T15:11:39.437Z,75.90
2023-03-30T15:14:22.126Z,75.80
2023-03-30T15:16:54.746Z,75.80
2023-03-30T15:19:34.131Z,76.40
2023-03-30T15:22:11.075Z,76.80
2023-03-30T15:24:46.218Z,77.10
2023-03-30T15:27:17.528Z,76.70
2023-03-30T15:29:45.538Z,76.20
2023-03-30T15:32:28.058Z,76.20
2023-03-30T15:35:18.260Z,76.50
2023-03-30T15:38:02.952Z,76.90
2023-03-30T15:40:34.099Z,77.00
2023-03-30T15:43:33.713Z,77.20
2023-03-30T15:46:06.392Z,77.10
2023-03-30T15:48:56.280Z,77.30
2023-03-30T15:54:48.221Z,77.60
2023-03-30T15:57:29.463Z,78.00
2023-03-30T16:00:09.493Z,78.40
2023-03-30T16:02:43.128Z,78.90
2023-03-30T16:05:20.327Z,79.00
2023-03-30T16:07:50.801Z,79.10
2023-03-30T16:10:27.335Z,79.40
2023-03-30T16:12:56.894Z,79.50
2023-03-30T16:15:32.252Z,79.80
2023-03-30T16:18:07.652Z,80.00
2023-03-30T16:20:35.205Z,80.90
2023-03-30T16:23:04.608Z,81.20
2023-03-30T16:25:44.874Z,81.40
2023-03-30T16:28:19.546Z,81.30
2023-03-30T16:30:50.419Z,81.00
2023-03-30T16:33:17.796Z,81.10
2023-03-30T16:35:46.837Z,81.60
2023-03-30T16:38:26.745Z,81.90
2023-03-30T16:40:59.964Z,82.10
2023-03-30T16:43:41.281Z,81.90
2023-03-30T16:46:14.493Z,82.20
2023-03-30T16:48:42.567Z,82.50
2023-03-30T16:51:14.451Z,82.80
2023-03-30T16:53:46.510Z,83.10
2023-03-30T16:56:18.538Z,83.30
2023-03-30T16:58:49.965Z,83.50
2023-03-30T17:01:20.980Z,83.80
2023-03-30T17:03:48.290Z,83.80
2023-03-30T17:06:17.046Z,83.60
2023-03-30T17:08:47.239Z,83.80
2023-03-30T17:11:18.628Z,83.40
2023-03-30T17:13:47.708Z,83.20
2023-03-30T17:16:17.211Z,83.50
2023-03-30T17:18:45.277Z,83.50
2023-03-30T17:21:16.737Z,83.50
2023-03-30T17:23:48.888Z,83.50
2023-03-30T17:26:16.587Z,83.50
2023-03-30T17:28:46.620Z,83.50
2023-03-30T17:31:27.715Z,83.80
2023-03-30T17:34:04.363Z,83.80
2023-03-30T17:36:31.820Z,83.90
2023-03-30T17:39:07.540Z,84.00
2023-03-30T17:41:35.419Z,84.50
2023-03-30T17:44:02.653Z,84.80
2023-03-30T17:46:29.998Z,84.90
2023-03-30T17:49:00.008Z,85.10
2023-03-30T17:51:27.186Z,85.40
2023-03-30T17:53:54.600Z,85.50
2023-03-30T17:56:24.370Z,85.60
2023-03-30T17:58:53.411Z,85.90
2023-03-30T18:01:23.890Z,86.00
2023-03-30T18:03:59.150Z,86.20
2023-03-30T18:06:27.236Z,86.50
2023-03-30T18:09:04.980Z,86.70
2023-03-30T18:11:32.624Z,86.70
2023-03-30T18:14:12.485Z,86.90
2023-03-30T18:17:06.768Z,86.90
2023-03-30T18:19:34.771Z,87.30
2023-03-30T18:22:02.537Z,87.40
2023-03-30T18:24:30.544Z,87.60
2023-03-30T18:27:04.611Z,87.80
2023-03-30T18:29:34.035Z,87.80
2023-03-30T18:32:01.155Z,87.90
2023-03-30T18:34:28.238Z,87.70
2023-03-30T18:36:55.594Z,87.50
2023-03-30T18:39:23.052Z,87.20
2023-03-30T18:41:50.579Z,86.90
2023-03-30T18:44:18.250Z,86.60
2023-03-30T18:46:52.461Z,86.30
2023-03-30T18:49:25.567Z,86.20
2023-03-30T18:51:53.895Z,85.80
2023-03-30T18:54:21.300Z,85.90
2023-03-30T18:56:50.028Z,86.00
2023-03-30T18:59:23.275Z,86.20
2023-03-30T19:01:53.167Z,86.10
2023-03-30T19:04:28.013Z,86.20
2023-03-30T19:06:55.782Z,86.20
2023-03-30T19:09:36.399Z,86.30
2023-03-30T19:12:15.217Z,86.30
2023-03-30T19:14:42.312Z,86.30
2023-03-30T19:17:09.626Z,86.40
2023-03-30T19:19:39.704Z,86.60
2023-03-30T19:22:09.956Z,86.80
2023-03-30T19:24:37.369Z,87.00
2023-03-30T19:27:08.120Z,87.10
2023-03-30T19:29:38.416Z,87.30
2023-03-30T19:32:06.191Z,87.50
2023-03-30T19:34:33.390Z,87.60
2023-03-30T19:37:03.510Z,87.60
2023-03-30T19:39:33.023Z,87.60
2023-03-30T19:42:00.622Z,87.70
2023-03-30T19:44:27.849Z,87.60
2023-03-30T19:46:54.931Z,87.70
2023-03-30T19:49:22.102Z,87.60
2023-03-30T19:51:51.327Z,87.60
2023-03-30T19:54:21.423Z,87.50
2023-03-30T19:56:48.597Z,87.10
2023-03-30T19:59:16.876Z,87.10
2023-03-30T20:01:45.751Z,87.20
2023-03-30T20:04:13.507Z,87.20
2023-03-30T20:06:49.786Z,87.00
2023-03-30T20:09:17.285Z,86.80
2023-03-30T20:11:45.992Z,86.90
2023-03-30T20:14:15.378Z,86.80
2023-03-30T20:16:43.193Z,86.80
2023-03-30T20:19:28.525Z,87.00
2023-03-30T20:21:57.948Z,87.10
2023-03-30T20:24:26.066Z,87.10
2023-03-30T20:26:53.436Z,87.30
2023-03-30T20:29:20.649Z,87.30
2023-03-30T20:31:47.834Z,87.30
2023-03-30T20:34:16.564Z,87.20
2023-03-30T20:36:51.737Z,87.30
2023-03-30T20:39:22.661Z,87.60
2023-03-30T20:41:54.074Z,87.50
2023-03-30T20:44:30.003Z,87.80
2023-03-30T20:46:58.285Z,87.90
2023-03-30T20:49:34.215Z,88.00
2023-03-30T20:52:04.625Z,88.20
2023-03-30T20:54:34.736Z,88.20
2023-03-30T20:57:02.489Z,88.20
2023-03-30T20:59:30.201Z,88.30
2023-03-30T21:02:07.637Z,88.30
2023-03-30T21:04:37.118Z,88.50
2023-03-30T21:07:10.334Z,88.40
2023-03-30T21:09:44.196Z,88.60
2023-03-30T21:12:12.188Z,88.70
2023-03-30T21:14:39.570Z,88.60
2023-03-30T21:17:07.787Z,88.50
2023-03-30T21:19:35.848Z,88.60
2023-03-30T21:22:03.803Z,88.60
2023-03-30T21:24:34.032Z,88.60
2023-03-30T21:27:06.384Z,88.70
2023-03-30T21:29:36.929Z,88.70
2023-03-30T21:32:10.348Z,88.60
2023-03-30T21:34:40.217Z,88.40
2023-03-30T21:37:07.536Z,88.70
2023-03-30T21:39:38.380Z,88.70
2023-03-30T21:42:11.515Z,88.60
2023-03-30T21:44:39.808Z,88.40
2023-03-30T21:47:12.179Z,88.40
2023-03-30T21:49:39.873Z,88.20
2023-03-30T21:52:07.017Z,88.00
2023-03-30T21:54:39.592Z,88.00
2023-03-30T21:57:09.865Z,87.90
2023-03-30T21:59:37.490Z,87.70
2023-03-30T22:02:05.180Z,87.40
2023-03-30T22:04:32.374Z,87.70
2023-03-30T22:06:59.760Z,87.60
2023-03-30T22:09:27.768Z,87.50
2023-03-30T22:11:55.841Z,87.80
2023-03-30T22:14:23.174Z,87.70
2023-03-30T22:16:50.911Z,87.60
2023-03-30T22:19:19.206Z,87.50
2023-03-30T22:21:48.126Z,87.20
2023-03-30T22:24:17.481Z,87.20
2023-03-30T22:26:45.471Z,86.70
2023-03-30T22:29:13.680Z,86.60
2023-03-30T22:31:41.825Z,86.50
2023-03-30T22:34:09.084Z,86.50
2023-03-30T22:36:42.755Z,86.60
2023-03-30T22:39:10.004Z,86.50
2023-03-30T22:41:37.121Z,86.70
2023-03-30T22:44:04.209Z,86.50
2023-03-30T22:46:31.670Z,86.60
2023-03-30T22:49:00.370Z,86.50
2023-03-30T22:51:27.573Z,86.30
2023-03-30T22:54:02.232Z,86.20
2023-03-30T22:56:30.505Z,86.20
2023-03-30T22:58:59.023Z,86.50
2023-03-30T23:01:32.656Z,86.60
2023-03-30T23:04:00.996Z,86.60
2023-03-30T23:06:36.256Z,86.60
2023-03-30T23:09:05.129Z,86.70
2023-03-30T23:11:33.308Z,86.60
2023-03-30T23:14:05.502Z,86.80
2023-03-30T23:16:34.380Z,86.70
2023-03-30T23:19:03.313Z,86.50
2023-03-30T23:21:36.753Z,86.60
2023-03-30T23:24:06.896Z,86.50
2023-03-30T23:26:44.045Z,86.70
2023-03-30T23:29:11.685Z,86.60
2023-03-30T23:31:40.567Z,86.60
2023-03-30T23:34:10.502Z,86.50
2023-03-30T23:36:38.046Z,86.40
2023-03-30T23:39:09.042Z,86.60
2023-03-30T23:41:36.427Z,86.70
2023-03-30T23:44:06.230Z,86.80
2023-03-30T23:46:34.407Z,86.60
2023-03-30T23:49:03.661Z,86.70
2023-03-30T23:51:31.547Z,86.50
2023-03-30T23:54:01.306Z,86.60
2023-03-30T23:56:32.394Z,86.70
2023-03-30T23:59:00.273Z,86.90
